sensor_id;sensor_type;location;lat;lon;timestamp;P1;durP1;ratioP1;P2;durP2;ratioP2
69030;SDS011;56083;48.774;8.942;2023-03-29T00:00:18;5.75;;;3.00;;
69030;SDS011;56083;48.774;8.942;2023-03-29T00:02:45;6.13;;;3.22;;
69030;SDS011;56083;48.774;8.942;2023-03-29T00:05:15;8.15;;;3.40;;
69030;SDS011;56083;48.774;8.942;2023-03-29T00:07:43;8.95;;;3.00;;
69030;SDS011;56083;48.774;8.942;2023-03-29T00:10:10;9.55;;;3.13;;
69030;SDS011;56083;48.774;8.942;2023-03-29T00:12:37;4.22;;;2.70;;
69030;SDS011;56083;48.774;8.942;2023-03-29T00:15:05;7.70;;;2.63;;
69030;SDS011;56083;48.774;8.942;2023-03-29T00:17:32;3.80;;;2.70;;
69030;SDS011;56083;48.774;8.942;2023-03-29T00:19:58;6.90;;;2.58;;
69030;SDS011;56083;48.774;8.942;2023-03-29T00:22:24;5.05;;;2.83;;
69030;SDS011;56083;48.774;8.942;2023-03-29T00:24:53;7.05;;;3.50;;
69030;SDS011;56083;48.774;8.942;2023-03-29T00:27:19;7.07;;;3.30;;
69030;SDS011;56083;48.774;8.942;2023-03-29T00:29:46;7.28;;;3.67;;
69030;SDS011;56083;48.774;8.942;2023-03-29T00:32:11;7.68;;;3.30;;
69030;SDS011;56083;48.774;8.942;2023-03-29T00:34:37;6.75;;;3.47;;
69030;SDS011;56083;48.774;8.942;2023-03-29T00:37:06;6.65;;;3.88;;
69030;SDS011;56083;48.774;8.942;2023-03-29T00:39:33;6.13;;;3.70;;
69030;SDS011;56083;48.774;8.942;2023-03-29T00:42:00;8.82;;;3.85;;
69030;SDS011;56083;48.774;8.942;2023-03-29T00:47:23;7.53;;;3.63;;
69030;SDS011;56083;48.774;8.942;2023-03-29T00:52:51;5.72;;;4.10;;
69030;SDS011;56083;48.774;8.942;2023-03-29T00:55:24;5.13;;;3.45;;
69030;SDS011;56083;48.774;8.942;2023-03-29T00:57:53;10.13;;;3.70;;
69030;SDS011;56083;48.774;8.942;2023-03-29T01:00:23;5.50;;;3.60;;
69030;SDS011;56083;48.774;8.942;2023-03-29T01:02:59;6.82;;;3.85;;
69030;SDS011;56083;48.774;8.942;2023-03-29T01:05:35;4.90;;;3.20;;
69030;SDS011;56083;48.774;8.942;2023-03-29T01:08:05;7.70;;;3.35;;
69030;SDS011;56083;48.774;8.942;2023-03-29T01:10:42;9.85;;;3.17;;
69030;SDS011;56083;48.774;8.942;2023-03-29T01:13:21;4.60;;;3.17;;
69030;SDS011;56083;48.774;8.942;2023-03-29T01:16:03;7.72;;;2.88;;
69030;SDS011;56083;48.774;8.942;2023-03-29T01:18:31;6.72;;;2.83;;
69030;SDS011;56083;48.774;8.942;2023-03-29T01:21:04;5.63;;;3.05;;
69030;SDS011;56083;48.774;8.942;2023-03-29T01:26:22;6.60;;;2.85;;
69030;SDS011;56083;48.774;8.942;2023-03-29T01:29:21;4.10;;;2.92;;
69030;SDS011;56083;48.774;8.942;2023-03-29T01:31:49;8.02;;;3.33;;
69030;SDS011;56083;48.774;8.942;2023-03-29T01:34:23;5.20;;;3.10;;
69030;SDS011;56083;48.774;8.942;2023-03-29T01:37:03;7.55;;;3.40;;
69030;SDS011;56083;48.774;8.942;2023-03-29T01:39:42;5.15;;;3.90;;
69030;SDS011;56083;48.774;8.942;2023-03-29T01:44:34;8.30;;;3.55;;
69030;SDS011;56083;48.774;8.942;2023-03-29T01:47:18;6.75;;;4.05;;
69030;SDS011;56083;48.774;8.942;2023-03-29T01:49:50;12.73;;;3.90;;
69030;SDS011;56083;48.774;8.942;2023-03-29T01:52:34;8.65;;;4.25;;
69030;SDS011;56083;48.774;8.942;2023-03-29T01:55:19;11.40;;;4.40;;
69030;SDS011;56083;48.774;8.942;2023-03-29T01:57:48;8.68;;;4.10;;
69030;SDS011;56083;48.774;8.942;2023-03-29T02:00:18;6.43;;;3.90;;
69030;SDS011;56083;48.774;8.942;2023-03-29T02:02:48;9.88;;;4.55;;
69030;SDS011;56083;48.774;8.942;2023-03-29T02:05:17;9.50;;;4.68;;
69030;SDS011;56083;48.774;8.942;2023-03-29T02:07:46;7.72;;;4.50;;
69030;SDS011;56083;48.774;8.942;2023-03-29T02:10:14;10.30;;;4.25;;
69030;SDS011;56083;48.774;8.942;2023-03-29T02:12:41;6.03;;;3.47;;
69030;SDS011;56083;48.774;8.942;2023-03-29T02:15:14;6.88;;;3.90;;
69030;SDS011;56083;48.774;8.942;2023-03-29T02:17:42;7.53;;;3.35;;
69030;SDS011;56083;48.774;8.942;2023-03-29T02:20:12;6.15;;;3.20;;
69030;SDS011;56083;48.774;8.942;2023-03-29T02:25:32;8.50;;;4.10;;
69030;SDS011;56083;48.774;8.942;2023-03-29T02:27:59;7.20;;;3.70;;
69030;SDS011;56083;48.774;8.942;2023-03-29T02:30:49;7.78;;;3.30;;
69030;SDS011;56083;48.774;8.942;2023-03-29T02:33:19;7.60;;;3.70;;
69030;SDS011;56083;48.774;8.942;2023-03-29T02:36:02;7.78;;;3.35;;
69030;SDS011;56083;48.774;8.942;2023-03-29T02:38:34;5.75;;;3.35;;
69030;SDS011;56083;48.774;8.942;2023-03-29T02:41:02;7.35;;;3.47;;
69030;SDS011;56083;48.774;8.942;2023-03-29T02:43:29;7.68;;;3.20;;
69030;SDS011;56083;48.774;8.942;2023-03-29T02:45:57;7.30;;;3.20;;
69030;SDS011;56083;48.774;8.942;2023-03-29T02:48:24;8.20;;;3.05;;
69030;SDS011;56083;48.774;8.942;2023-03-29T02:50:53;6.18;;;2.83;;
69030;SDS011;56083;48.774;8.942;2023-03-29T02:53:23;4.65;;;2.90;;
69030;SDS011;56083;48.774;8.942;2023-03-29T02:55:56;9.90;;;3.20;;
69030;SDS011;56083;48.774;8.942;2023-03-29T02:58:22;7.90;;;3.58;;
69030;SDS011;56083;48.774;8.942;2023-03-29T03:00:50;9.38;;;3.28;;
69030;SDS011;56083;48.774;8.942;2023-03-29T03:03:16;5.63;;;3.45;;
69030;SDS011;56083;48.774;8.942;2023-03-29T03:05:41;8.25;;;3.63;;
69030;SDS011;56083;48.774;8.942;2023-03-29T03:08:08;7.00;;;3.65;;
69030;SDS011;56083;48.774;8.942;2023-03-29T03:10:34;8.10;;;4.15;;
69030;SDS011;56083;48.774;8.942;2023-03-29T03:12:59;6.13;;;3.33;;
69030;SDS011;56083;48.774;8.942;2023-03-29T03:15:25;5.93;;;3.05;;
69030;SDS011;56083;48.774;8.942;2023-03-29T03:17:51;6.10;;;2.67;;
69030;SDS011;56083;48.774;8.942;2023-03-29T03:20:18;5.95;;;2.58;;
69030;SDS011;56083;48.774;8.942;2023-03-29T03:22:46;8.73;;;2.53;;
69030;SDS011;56083;48.774;8.942;2023-03-29T03:25:16;4.50;;;2.50;;
69030;SDS011;56083;48.774;8.942;2023-03-29T03:27:46;7.20;;;2.55;;
69030;SDS011;56083;48.774;8.942;2023-03-29T03:30:13;4.10;;;2.38;;
69030;SDS011;56083;48.774;8.942;2023-03-29T03:32:40;4.88;;;2.30;;
69030;SDS011;56083;48.774;8.942;2023-03-29T03:35:08;4.22;;;2.20;;
69030;SDS011;56083;48.774;8.942;2023-03-29T03:37:35;6.25;;;2.80;;
69030;SDS011;56083;48.774;8.942;2023-03-29T03:40:02;6.95;;;2.45;;
69030;SDS011;56083;48.774;8.942;2023-03-29T03:42:29;5.53;;;2.70;;
69030;SDS011;56083;48.774;8.942;2023-03-29T03:44:55;5.78;;;2.28;;
69030;SDS011;56083;48.774;8.942;2023-03-29T03:47:21;4.22;;;2.17;;
69030;SDS011;56083;48.774;8.942;2023-03-29T03:49:46;2.60;;;1.95;;
69030;SDS011;56083;48.774;8.942;2023-03-29T03:52:12;2.63;;;1.67;;
69030;SDS011;56083;48.774;8.942;2023-03-29T03:54:38;4.18;;;1.77;;
69030;SDS011;56083;48.774;8.942;2023-03-29T03:57:04;4.68;;;2.03;;
69030;SDS011;56083;48.774;8.942;2023-03-29T03:59:30;7.28;;;2.17;;
69030;SDS011;56083;48.774;8.942;2023-03-29T04:01:55;2.72;;;1.52;;
69030;SDS011;56083;48.774;8.942;2023-03-29T04:04:22;3.78;;;1.40;;
69030;SDS011;56083;48.774;8.942;2023-03-29T04:06:48;5.15;;;1.65;;
69030;SDS011;56083;48.774;8.942;2023-03-29T04:09:14;7.30;;;2.10;;
69030;SDS011;56083;48.774;8.942;2023-03-29T04:11:40;3.92;;;1.70;;
69030;SDS011;56083;48.774;8.942;2023-03-29T04:14:05;3.92;;;1.63;;
69030;SDS011;56083;48.774;8.942;2023-03-29T04:16:31;5.40;;;1.80;;
69030;SDS011;56083;48.774;8.942;2023-03-29T04:18:57;2.90;;;1.60;;
69030;SDS011;56083;48.774;8.942;2023-03-29T04:21:22;3.60;;;1.63;;
69030;SDS011;56083;48.774;8.942;2023-03-29T04:23:48;5.80;;;1.77;;
69030;SDS011;56083;48.774;8.942;2023-03-29T04:26:14;3.40;;;1.60;;
69030;SDS011;56083;48.774;8.942;2023-03-29T04:28:40;3.65;;;1.80;;
69030;SDS011;56083;48.774;8.942;2023-03-29T04:31:09;5.30;;;2.10;;
69030;SDS011;56083;48.774;8.942;2023-03-29T04:33:36;15.25;;;3.65;;
69030;SDS011;56083;48.774;8.942;2023-03-29T04:36:02;9.43;;;3.28;;
69030;SDS011;56083;48.774;8.942;2023-03-29T04:38:29;6.38;;;2.28;;
69030;SDS011;56083;48.774;8.942;2023-03-29T04:40:55;6.40;;;2.00;;
69030;SDS011;56083;48.774;8.942;2023-03-29T04:43:21;5.93;;;1.90;;
69030;SDS011;56083;48.774;8.942;2023-03-29T04:45:47;3.35;;;1.63;;
69030;SDS011;56083;48.774;8.942;2023-03-29T04:48:14;6.45;;;1.75;;
69030;SDS011;56083;48.774;8.942;2023-03-29T04:50:40;7.57;;;1.83;;
69030;SDS011;56083;48.774;8.942;2023-03-29T04:53:09;9.20;;;2.08;;
69030;SDS011;56083;48.774;8.942;2023-03-29T04:55:35;6.57;;;2.10;;
69030;SDS011;56083;48.774;8.942;2023-03-29T04:58:01;5.68;;;2.03;;
69030;SDS011;56083;48.774;8.942;2023-03-29T05:00:26;6.32;;;2.15;;
69030;SDS011;56083;48.774;8.942;2023-03-29T05:02:52;8.38;;;2.33;;
69030;SDS011;56083;48.774;8.942;2023-03-29T05:05:18;8.55;;;1.88;;
69030;SDS011;56083;48.774;8.942;2023-03-29T05:07:45;10.25;;;1.98;;
69030;SDS011;56083;48.774;8.942;2023-03-29T05:10:10;4.97;;;1.88;;
69030;SDS011;56083;48.774;8.942;2023-03-29T05:12:36;8.13;;;2.20;;
69030;SDS011;56083;48.774;8.942;2023-03-29T05:15:02;7.78;;;2.63;;
69030;SDS011;56083;48.774;8.942;2023-03-29T05:17:29;9.05;;;3.22;;
69030;SDS011;56083;48.774;8.942;2023-03-29T05:19:55;10.63;;;3.47;;
69030;SDS011;56083;48.774;8.942;2023-03-29T05:22:21;9.00;;;3.45;;
69030;SDS011;56083;48.774;8.942;2023-03-29T05:24:48;10.85;;;2.92;;
69030;SDS011;56083;48.774;8.942;2023-03-29T05:27:15;6.00;;;2.58;;
69030;SDS011;56083;48.774;8.942;2023-03-29T05:29:41;3.97;;;1.80;;
69030;SDS011;56083;48.774;8.942;2023-03-29T05:32:08;7.93;;;1.73;;
69030;SDS011;56083;48.774;8.942;2023-03-29T05:34:34;3.78;;;1.90;;
69030;SDS011;56083;48.774;8.942;2023-03-29T05:37:01;7.63;;;1.83;;
69030;SDS011;56083;48.774;8.942;2023-03-29T05:39:27;4.13;;;1.50;;
69030;SDS011;56083;48.774;8.942;2023-03-29T05:41:53;9.95;;;1.85;;
69030;SDS011;56083;48.774;8.942;2023-03-29T05:44:19;17.60;;;1.70;;
69030;SDS011;56083;48.774;8.942;2023-03-29T05:46:44;4.88;;;1.80;;
69030;SDS011;56083;48.774;8.942;2023-03-29T05:49:10;11.55;;;2.00;;
69030;SDS011;56083;48.774;8.942;2023-03-29T05:51:36;4.05;;;1.73;;
69030;SDS011;56083;48.774;8.942;2023-03-29T05:54:02;3.92;;;1.70;;
69030;SDS011;56083;48.774;8.942;2023-03-29T05:56:27;6.85;;;1.77;;
69030;SDS011;56083;48.774;8.942;2023-03-29T05:58:53;7.53;;;1.50;;
69030;SDS011;56083;48.774;8.942;2023-03-29T06:01:22;3.13;;;1.50;;
69030;SDS011;56083;48.774;8.942;2023-03-29T06:03:51;4.28;;;1.30;;
69030;SDS011;56083;48.774;8.942;2023-03-29T06:06:17;4.90;;;1.50;;
69030;SDS011;56083;48.774;8.942;2023-03-29T06:08:43;5.43;;;1.40;;
69030;SDS011;56083;48.774;8.942;2023-03-29T06:11:10;2.63;;;1.27;;
69030;SDS011;56083;48.774;8.942;2023-03-29T06:13:37;3.97;;;1.40;;
69030;SDS011;56083;48.774;8.942;2023-03-29T06:16:06;4.22;;;1.20;;
69030;SDS011;56083;48.774;8.942;2023-03-29T06:18:32;3.30;;;1.38;;
69030;SDS011;56083;48.774;8.942;2023-03-29T06:20:58;6.32;;;1.77;;
69030;SDS011;56083;48.774;8.942;2023-03-29T06:23:26;3.60;;;1.40;;
69030;SDS011;56083;48.774;8.942;2023-03-29T06:25:52;4.18;;;1.10;;
69030;SDS011;56083;48.774;8.942;2023-03-29T06:28:19;9.68;;;1.50;;
69030;SDS011;56083;48.774;8.942;2023-03-29T06:30:45;7.45;;;1.70;;
69030;SDS011;56083;48.774;8.942;2023-03-29T06:33:11;6.38;;;1.70;;
69030;SDS011;56083;48.774;8.942;2023-03-29T06:35:39;5.15;;;1.70;;
69030;SDS011;56083;48.774;8.942;2023-03-29T06:38:07;5.80;;;1.85;;
69030;SDS011;56083;48.774;8.942;2023-03-29T06:40:33;6.55;;;1.60;;
69030;SDS011;56083;48.774;8.942;2023-03-29T06:43:01;10.82;;;1.60;;
69030;SDS011;56083;48.774;8.942;2023-03-29T06:45:27;8.18;;;1.65;;
69030;SDS011;56083;48.774;8.942;2023-03-29T06:47:56;4.38;;;1.83;;
69030;SDS011;56083;48.774;8.942;2023-03-29T06:50:21;5.90;;;1.73;;
69030;SDS011;56083;48.774;8.942;2023-03-29T06:52:48;7.47;;;1.75;;
69030;SDS011;56083;48.774;8.942;2023-03-29T06:55:14;5.70;;;1.90;;
69030;SDS011;56083;48.774;8.942;2023-03-29T06:57:40;7.93;;;1.75;;
69030;SDS011;56083;48.774;8.942;2023-03-29T07:00:07;2.58;;;1.50;;
69030;SDS011;56083;48.774;8.942;2023-03-29T07:02:43;5.40;;;1.60;;
69030;SDS011;56083;48.774;8.942;2023-03-29T07:05:10;8.32;;;1.63;;
69030;SDS011;56083;48.774;8.942;2023-03-29T07:07:38;6.40;;;2.00;;
69030;SDS011;56083;48.774;8.942;2023-03-29T07:10:24;9.55;;;1.85;;
69030;SDS011;56083;48.774;8.942;2023-03-29T07:12:52;7.35;;;1.95;;
69030;SDS011;56083;48.774;8.942;2023-03-29T07:15:19;4.93;;;1.80;;
69030;SDS011;56083;48.774;8.942;2023-03-29T07:17:46;3.83;;;1.83;;
69030;SDS011;56083;48.774;8.942;2023-03-29T07:20:12;6.07;;;2.20;;
69030;SDS011;56083;48.774;8.942;2023-03-29T07:22:41;7.43;;;1.83;;
69030;SDS011;56083;48.774;8.942;2023-03-29T07:25:08;7.57;;;1.70;;
69030;SDS011;56083;48.774;8.942;2023-03-29T07:27:36;4.28;;;1.60;;
69030;SDS011;56083;48.774;8.942;2023-03-29T07:30:03;4.75;;;1.70;;
69030;SDS011;56083;48.774;8.942;2023-03-29T07:32:35;5.78;;;1.58;;
69030;SDS011;56083;48.774;8.942;2023-03-29T07:35:01;3.58;;;1.58;;
69030;SDS011;56083;48.774;8.942;2023-03-29T07:37:29;6.68;;;1.65;;
69030;SDS011;56083;48.774;8.942;2023-03-29T07:39:56;5.07;;;1.52;;
69030;SDS011;56083;48.774;8.942;2023-03-29T07:42:22;11.30;;;2.10;;
69030;SDS011;56083;48.774;8.942;2023-03-29T07:44:47;7.72;;;1.80;;
69030;SDS011;56083;48.774;8.942;2023-03-29T07:47:13;4.72;;;1.80;;
69030;SDS011;56083;48.774;8.942;2023-03-29T07:49:39;5.72;;;1.60;;
69030;SDS011;56083;48.774;8.942;2023-03-29T07:52:06;4.00;;;1.80;;
69030;SDS011;56083;48.774;8.942;2023-03-29T07:54:32;5.10;;;1.90;;
69030;SDS011;56083;48.774;8.942;2023-03-29T07:56:58;5.15;;;1.70;;
69030;SDS011;56083;48.774;8.942;2023-03-29T07:59:24;6.00;;;1.50;;
69030;SDS011;56083;48.774;8.942;2023-03-29T08:01:51;5.63;;;1.38;;
69030;SDS011;56083;48.774;8.942;2023-03-29T08:04:17;7.03;;;1.50;;
69030;SDS011;56083;48.774;8.942;2023-03-29T08:06:42;2.15;;;1.10;;
69030;SDS011;56083;48.774;8.942;2023-03-29T08:09:08;4.30;;;1.50;;
69030;SDS011;56083;48.774;8.942;2023-03-29T08:11:34;5.50;;;1.30;;
69030;SDS011;56083;48.774;8.942;2023-03-29T08:13:59;8.43;;;1.58;;
69030;SDS011;56083;48.774;8.942;2023-03-29T08:16:25;7.10;;;1.48;;
69030;SDS011;56083;48.774;8.942;2023-03-29T08:18:51;8.55;;;2.22;;
69030;SDS011;56083;48.774;8.942;2023-03-29T08:21:16;17.00;;;3.03;;
69030;SDS011;56083;48.774;8.942;2023-03-29T08:23:42;9.50;;;3.25;;
69030;SDS011;56083;48.774;8.942;2023-03-29T08:26:07;7.28;;;2.45;;
69030;SDS011;56083;48.774;8.942;2023-03-29T08:28:33;8.68;;;3.05;;
69030;SDS011;56083;48.774;8.942;2023-03-29T08:30:59;9.15;;;1.83;;
69030;SDS011;56083;48.774;8.942;2023-03-29T08:33:25;9.85;;;2.10;;
69030;SDS011;56083;48.774;8.942;2023-03-29T08:35:50;11.45;;;1.83;;
69030;SDS011;56083;48.774;8.942;2023-03-29T08:38:17;15.73;;;4.45;;
69030;SDS011;56083;48.774;8.942;2023-03-29T08:40:45;19.88;;;13.25;;
69030;SDS011;56083;48.774;8.942;2023-03-29T08:46:27;7.55;;;3.85;;
69030;SDS011;56083;48.774;8.942;2023-03-29T08:49:04;15.07;;;7.35;;
69030;SDS011;56083;48.774;8.942;2023-03-29T08:51:33;13.43;;;5.10;;
69030;SDS011;56083;48.774;8.942;2023-03-29T08:54:21;8.52;;;2.00;;
69030;SDS011;56083;48.774;8.942;2023-03-29T08:56:51;9.25;;;1.58;;
69030;SDS011;56083;48.774;8.942;2023-03-29T08:59:23;16.88;;;10.55;;
69030;SDS011;56083;48.774;8.942;2023-03-29T09:01:54;10.32;;;6.20;;
69030;SDS011;56083;48.774;8.942;2023-03-29T09:04:22;9.35;;;5.65;;
69030;SDS011;56083;48.774;8.942;2023-03-29T09:06:53;8.88;;;1.67;;
69030;SDS011;56083;48.774;8.942;2023-03-29T09:09:20;8.88;;;2.30;;
69030;SDS011;56083;48.774;8.942;2023-03-29T09:11:54;3.58;;;1.55;;
69030;SDS011;56083;48.774;8.942;2023-03-29T09:20:11;10.32;;;1.80;;
69030;SDS011;56083;48.774;8.942;2023-03-29T09:28:36;5.20;;;1.67;;
69030;SDS011;56083;48.774;8.942;2023-03-29T09:31:17;5.55;;;1.70;;
69030;SDS011;56083;48.774;8.942;2023-03-29T09:33:45;8.93;;;1.90;;
69030;SDS011;56083;48.774;8.942;2023-03-29T09:39:18;5.85;;;2.30;;
69030;SDS011;56083;48.774;8.942;2023-03-29T09:41:50;9.77;;;1.67;;
69030;SDS011;56083;48.774;8.942;2023-03-29T09:44:20;6.22;;;1.70;;
69030;SDS011;56083;48.774;8.942;2023-03-29T09:47:00;7.25;;;1.65;;
69030;SDS011;56083;48.774;8.942;2023-03-29T09:49:33;7.18;;;1.77;;
69030;SDS011;56083;48.774;8.942;2023-03-29T09:52:04;17.65;;;2.22;;
69030;SDS011;56083;48.774;8.942;2023-03-29T09:54:35;5.00;;;1.60;;
69030;SDS011;56083;48.774;8.942;2023-03-29T09:57:01;3.97;;;1.70;;
69030;SDS011;56083;48.774;8.942;2023-03-29T09:59:27;3.90;;;1.50;;
69030;SDS011;56083;48.774;8.942;2023-03-29T10:01:53;5.03;;;1.75;;
69030;SDS011;56083;48.774;8.942;2023-03-29T10:04:31;5.47;;;1.60;;
69030;SDS011;56083;48.774;8.942;2023-03-29T10:06:56;4.65;;;1.27;;
69030;SDS011;56083;48.774;8.942;2023-03-29T10:09:24;4.40;;;1.70;;
69030;SDS011;56083;48.774;8.942;2023-03-29T10:11:53;6.63;;;1.80;;
69030;SDS011;56083;48.774;8.942;2023-03-29T10:14:28;3.65;;;1.63;;
69030;SDS011;56083;48.774;8.942;2023-03-29T10:16:58;8.38;;;1.60;;
69030;SDS011;56083;48.774;8.942;2023-03-29T10:19:27;4.97;;;1.65;;
69030;SDS011;56083;48.774;8.942;2023-03-29T10:21:54;5.10;;;1.75;;
69030;SDS011;56083;48.774;8.942;2023-03-29T10:24:25;4.40;;;1.40;;
69030;SDS011;56083;48.774;8.942;2023-03-29T10:26:57;3.90;;;1.50;;
69030;SDS011;56083;48.774;8.942;2023-03-29T10:29:25;5.32;;;1.30;;
69030;SDS011;56083;48.774;8.942;2023-03-29T10:31:52;6.10;;;1.63;;
69030;SDS011;56083;48.774;8.942;2023-03-29T10:34:18;3.58;;;1.20;;
69030;SDS011;56083;48.774;8.942;2023-03-29T10:36:54;6.72;;;1.70;;
69030;SDS011;56083;48.774;8.942;2023-03-29T10:39:22;6.32;;;1.90;;
69030;SDS011;56083;48.774;8.942;2023-03-29T10:41:54;5.28;;;1.42;;
69030;SDS011;56083;48.774;8.942;2023-03-29T10:44:23;3.50;;;1.30;;
69030;SDS011;56083;48.774;8.942;2023-03-29T10:46:54;2.83;;;1.20;;
69030;SDS011;56083;48.774;8.942;2023-03-29T10:49:21;2.83;;;1.38;;
69030;SDS011;56083;48.774;8.942;2023-03-29T10:51:48;6.10;;;1.70;;
69030;SDS011;56083;48.774;8.942;2023-03-29T10:54:15;7.53;;;1.63;;
69030;SDS011;56083;48.774;8.942;2023-03-29T10:56:54;5.20;;;1.70;;
69030;SDS011;56083;48.774;8.942;2023-03-29T11:12:47;4.25;;;1.40;;
69030;SDS011;56083;48.774;8.942;2023-03-29T11:21:00;4.63;;;1.40;;
69030;SDS011;56083;48.774;8.942;2023-03-29T11:29:47;5.70;;;1.20;;
69030;SDS011;56083;48.774;8.942;2023-03-29T11:43:14;3.88;;;1.05;;
69030;SDS011;56083;48.774;8.942;2023-03-29T11:45:56;3.45;;;1.20;;
69030;SDS011;56083;48.774;8.942;2023-03-29T11:48:30;6.30;;;1.05;;
69030;SDS011;56083;48.774;8.942;2023-03-29T11:51:19;3.90;;;1.13;;
69030;SDS011;56083;48.774;8.942;2023-03-29T11:54:08;5.97;;;1.02;;
69030;SDS011;56083;48.774;8.942;2023-03-29T11:59:28;4.15;;;1.25;;
69030;SDS011;56083;48.774;8.942;2023-03-29T12:02:11;3.25;;;1.00;;
69030;SDS011;56083;48.774;8.942;2023-03-29T12:04:50;1.80;;;0.98;;
69030;SDS011;56083;48.774;8.942;2023-03-29T12:07:21;2.35;;;0.90;;
69030;SDS011;56083;48.774;8.942;2023-03-29T12:12:46;5.45;;;1.48;;
69030;SDS011;56083;48.774;8.942;2023-03-29T12:17:42;3.80;;;1.10;;
69030;SDS011;56083;48.774;8.942;2023-03-29T12:20:23;2.38;;;1.00;;
69030;SDS011;56083;48.774;8.942;2023-03-29T12:22:53;2.75;;;0.75;;
69030;SDS011;56083;48.774;8.942;2023-03-29T12:25:29;4.97;;;1.13;;
69030;SDS011;56083;48.774;8.942;2023-03-29T12:31:15;3.63;;;1.30;;
69030;SDS011;56083;48.774;8.942;2023-03-29T12:39:26;6.43;;;1.23;;
69030;SDS011;56083;48.774;8.942;2023-03-29T12:42:03;2.55;;;1.15;;
69030;SDS011;56083;48.774;8.942;2023-03-29T12:44:41;9.32;;;1.20;;
69030;SDS011;56083;48.774;8.942;2023-03-29T12:47:24;3.65;;;1.10;;
69030;SDS011;56083;48.774;8.942;2023-03-29T12:49:56;2.33;;;1.23;;
69030;SDS011;56083;48.774;8.942;2023-03-29T12:52:24;3.13;;;1.00;;
69030;SDS011;56083;48.774;8.942;2023-03-29T12:54:58;6.40;;;1.20;;
69030;SDS011;56083;48.774;8.942;2023-03-29T13:00:26;4.00;;;1.02;;
69030;SDS011;56083;48.774;8.942;2023-03-29T13:05:59;4.28;;;1.40;;
69030;SDS011;56083;48.774;8.942;2023-03-29T13:08:32;3.25;;;1.25;;
69030;SDS011;56083;48.774;8.942;2023-03-29T13:11:08;3.60;;;1.38;;
69030;SDS011;56083;48.774;8.942;2023-03-29T13:13:37;8.63;;;1.23;;
69030;SDS011;56083;48.774;8.942;2023-03-29T13:16:15;5.20;;;1.30;;
69030;SDS011;56083;48.774;8.942;2023-03-29T13:38:04;4.70;;;1.40;;
69030;SDS011;56083;48.774;8.942;2023-03-29T13:40:57;5.80;;;1.25;;
69030;SDS011;56083;48.774;8.942;2023-03-29T13:43:47;4.03;;;1.17;;
69030;SDS011;56083;48.774;8.942;2023-03-29T13:46:33;5.75;;;1.40;;
69030;SDS011;56083;48.774;8.942;2023-03-29T13:49:21;2.47;;;1.08;;
69030;SDS011;56083;48.774;8.942;2023-03-29T13:54:26;5.45;;;1.90;;
69030;SDS011;56083;48.774;8.942;2023-03-29T14:02:11;6.38;;;1.40;;
69030;SDS011;56083;48.774;8.942;2023-03-29T14:04:48;7.25;;;2.10;;
69030;SDS011;56083;48.774;8.942;2023-03-29T14:07:16;4.00;;;0.88;;
69030;SDS011;56083;48.774;8.942;2023-03-29T14:09:45;5.70;;;1.52;;
69030;SDS011;56083;48.774;8.942;2023-03-29T14:12:14;5.75;;;1.40;;
69030;SDS011;56083;48.774;8.942;2023-03-29T14:14:42;4.80;;;1.30;;
69030;SDS011;56083;48.774;8.942;2023-03-29T14:17:17;7.97;;;1.48;;
69030;SDS011;56083;48.774;8.942;2023-03-29T14:19:46;5.68;;;1.17;;
69030;SDS011;56083;48.774;8.942;2023-03-29T14:22:13;5.20;;;1.23;;
69030;SDS011;56083;48.774;8.942;2023-03-29T14:24:45;4.70;;;1.55;;
69030;SDS011;56083;48.774;8.942;2023-03-29T14:27:13;3.50;;;1.50;;
69030;SDS011;56083;48.774;8.942;2023-03-29T14:29:39;5.40;;;1.38;;
69030;SDS011;56083;48.774;8.942;2023-03-29T14:32:15;4.60;;;1.45;;
69030;SDS011;56083;48.774;8.942;2023-03-29T14:37:11;4.32;;;1.00;;
69030;SDS011;56083;48.774;8.942;2023-03-29T14:39:41;4.68;;;1.40;;
69030;SDS011;56083;48.774;8.942;2023-03-29T14:42:25;4.72;;;1.48;;
69030;SDS011;56083;48.774;8.942;2023-03-29T14:44:56;5.50;;;2.58;;
69030;SDS011;56083;48.774;8.942;2023-03-29T14:47:28;5.15;;;2.20;;
69030;SDS011;56083;48.774;8.942;2023-03-29T14:49:55;2.38;;;1.20;;
69030;SDS011;56083;48.774;8.942;2023-03-29T14:52:24;2.97;;;0.93;;
69030;SDS011;56083;48.774;8.942;2023-03-29T14:54:54;4.38;;;1.40;;
69030;SDS011;56083;48.774;8.942;2023-03-29T14:57:24;10.70;;;1.20;;
69030;SDS011;56083;48.774;8.942;2023-03-29T15:00:38;5.25;;;1.80;;
69030;SDS011;56083;48.774;8.942;2023-03-29T15:02:55;7.57;;;1.88;;
69030;SDS011;56083;48.774;8.942;2023-03-29T15:05:30;9.82;;;1.70;;
69030;SDS011;56083;48.774;8.942;2023-03-29T15:08:00;6.90;;;1.60;;
69030;SDS011;56083;48.774;8.942;2023-03-29T15:10:29;3.97;;;1.42;;
69030;SDS011;56083;48.774;8.942;2023-03-29T15:12:56;11.68;;;1.60;;
69030;SDS011;56083;48.774;8.942;2023-03-29T15:15:24;9.68;;;1.52;;
69030;SDS011;56083;48.774;8.942;2023-03-29T15:17:51;6.35;;;1.75;;
69030;SDS011;56083;48.774;8.942;2023-03-29T15:20:22;7.15;;;2.40;;
69030;SDS011;56083;48.774;8.942;2023-03-29T15:22:51;11.60;;;1.77;;
69030;SDS011;56083;48.774;8.942;2023-03-29T15:25:26;4.75;;;1.75;;
69030;SDS011;56083;48.774;8.942;2023-03-29T15:27:57;8.10;;;2.75;;
69030;SDS011;56083;48.774;8.942;2023-03-29T15:30:40;14.20;;;2.88;;
69030;SDS011;56083;48.774;8.942;2023-03-29T15:33:12;4.68;;;1.65;;
69030;SDS011;56083;48.774;8.942;2023-03-29T15:35:45;3.78;;;1.98;;
69030;SDS011;56083;48.774;8.942;2023-03-29T15:38:17;3.97;;;1.60;;
69030;SDS011;56083;48.774;8.942;2023-03-29T15:40:43;5.38;;;1.80;;
69030;SDS011;56083;48.774;8.942;2023-03-29T15:43:10;7.15;;;1.67;;
69030;SDS011;56083;48.774;8.942;2023-03-29T15:45:36;5.22;;;1.60;;
69030;SDS011;56083;48.774;8.942;2023-03-29T15:48:07;3.78;;;1.10;;
69030;SDS011;56083;48.774;8.942;2023-03-29T15:50:38;5.55;;;1.20;;
69030;SDS011;56083;48.774;8.942;2023-03-29T15:53:03;6.00;;;1.15;;
69030;SDS011;56083;48.774;8.942;2023-03-29T15:55:29;9.80;;;1.38;;
69030;SDS011;56083;48.774;8.942;2023-03-29T15:57:56;6.32;;;1.38;;
69030;SDS011;56083;48.774;8.942;2023-03-29T16:00:22;10.55;;;1.52;;
69030;SDS011;56083;48.774;8.942;2023-03-29T16:02:49;4.15;;;1.20;;
69030;SDS011;56083;48.774;8.942;2023-03-29T16:05:15;7.00;;;1.55;;
69030;SDS011;56083;48.774;8.942;2023-03-29T16:07:41;8.02;;;1.73;;
69030;SDS011;56083;48.774;8.942;2023-03-29T16:10:07;9.82;;;1.50;;
69030;SDS011;56083;48.774;8.942;2023-03-29T16:12:34;5.78;;;1.48;;
69030;SDS011;56083;48.774;8.942;2023-03-29T16:15:07;12.93;;;2.42;;
69030;SDS011;56083;48.774;8.942;2023-03-29T16:17:36;8.95;;;1.58;;
69030;SDS011;56083;48.774;8.942;2023-03-29T16:20:01;6.53;;;1.33;;
69030;SDS011;56083;48.774;8.942;2023-03-29T16:22:29;4.05;;;1.20;;
69030;SDS011;56083;48.774;8.942;2023-03-29T16:24:54;4.93;;;1.48;;
69030;SDS011;56083;48.774;8.942;2023-03-29T16:27:20;3.92;;;1.30;;
69030;SDS011;56083;48.774;8.942;2023-03-29T16:29:46;16.48;;;1.55;;
69030;SDS011;56083;48.774;8.942;2023-03-29T16:32:11;6.03;;;1.10;;
69030;SDS011;56083;48.774;8.942;2023-03-29T16:34:37;6.50;;;1.50;;
69030;SDS011;56083;48.774;8.942;2023-03-29T16:37:04;10.43;;;2.20;;
69030;SDS011;56083;48.774;8.942;2023-03-29T16:39:30;6.03;;;1.92;;
69030;SDS011;56083;48.774;8.942;2023-03-29T16:41:56;9.70;;;2.45;;
69030;SDS011;56083;48.774;8.942;2023-03-29T16:44:21;9.77;;;2.20;;
69030;SDS011;56083;48.774;8.942;2023-03-29T16:46:50;6.03;;;1.30;;
69030;SDS011;56083;48.774;8.942;2023-03-29T16:49:17;4.18;;;1.42;;
69030;SDS011;56083;48.774;8.942;2023-03-29T16:51:46;12.25;;;1.90;;
69030;SDS011;56083;48.774;8.942;2023-03-29T16:54:12;7.18;;;1.80;;
69030;SDS011;56083;48.774;8.942;2023-03-29T16:56:38;10.80;;;2.03;;
69030;SDS011;56083;48.774;8.942;2023-03-29T16:59:04;5.47;;;1.63;;